Time;durP1;ratioP1;P1;durP2;ratioP2;P2;SDS_P1;SDS_P2;PMS_P1;PMS_P2;Temp;Humidity;BMP_temperature;BMP_pressure;BME280_temperature;BME280_humidity;BME280_pressure;Samples;Min_cycle;Max_cycle;Signal;HPM_P1;HPM_P2
2021/04/14 00:00:39;;;;;;;5.15;2.88;;;5.20;99.90;;;;;;3574246;40;20447;-80
2021/04/14 00:03:09;;;;;;;7.25;2.35;;;5.20;99.90;;;;;;3575102;40;20081;-80
2021/04/14 00:05:37;;;;;;;6.15;2.40;;;5.30;99.90;;;;;;3574963;40;20052;-81
2021/04/14 00:08:04;;;;;;;7.30;2.25;;;5.10;99.90;;;;;;3574971;40;20060;-80
2021/04/14 00:10:33;;;;;;;14.13;4.07;;;5.20;99.90;;;;;;3574801;40;20403;-81
2021/04/14 00:13:00;;;;;;;11.27;4.10;;;5.00;99.90;;;;;;3574737;40;20055;-80
2021/04/14 00:15:39;;;;;;;10.68;4.18;;;4.80;99.90;;;;;;3575319;40;20052;-80
2021/04/14 00:18:06;;;;;;;7.03;3.22;;;4.70;99.90;;;;;;3574424;40;20065;-81
2021/04/14 00:20:33;;;;;;;7.65;3.40;;;4.80;99.90;;;;;;3573854;40;20311;-80
2021/04/14 00:22:58;;;;;;;11.93;3.83;;;4.60;99.90;;;;;;3574569;40;20307;-80
2021/04/14 00:25:32;;;;;;;9.70;2.80;;;4.60;99.90;;;;;;3574899;40;20052;-81
2021/04/14 00:27:58;;;;;;;10.80;3.72;;;4.60;99.90;;;;;;3574296;40;20052;-81
2021/04/14 00:30:25;;;;;;;10.68;3.40;;;4.50;99.90;;;;;;3574635;40;20391;-80
2021/04/14 00:32:51;;;;;;;5.18;2.25;;;4.60;99.90;;;;;;3574367;40;20345;-79
2021/04/14 00:35:19;;;;;;;8.93;2.88;;;4.40;99.90;;;;;;3573583;40;20052;-80
2021/04/14 00:37:45;;;;;;;4.55;2.28;;;4.50;99.90;;;;;;3573382;40;20312;-80
2021/04/14 00:40:18;;;;;;;8.80;2.40;;;4.10;99.90;;;;;;3573267;40;20303;-78
2021/04/14 00:42:44;;;;;;;4.15;2.05;;;4.40;99.90;;;;;;3574085;40;20063;-82
2021/04/14 00:45:10;;;;;;;5.13;1.95;;;4.50;99.90;;;;;;3573852;40;20108;-80
2021/04/14 00:47:35;;;;;;;5.30;1.85;;;4.40;99.90;;;;;;3574069;40;20049;-81
2021/04/14 00:50:02;;;;;;;4.45;1.40;;;4.60;99.90;;;;;;3572256;40;20134;-79
2021/04/14 00:52:28;;;;;;;8.00;2.20;;;4.50;99.90;;;;;;3573846;40;20060;-81
2021/04/14 00:54:53;;;;;;;6.30;1.67;;;4.30;99.90;;;;;;3573488;40;20060;-80
2021/04/14 00:57:19;;;;;;;7.40;1.30;;;4.20;99.90;;;;;;3574090;40;20052;-78
2021/04/14 00:59:45;;;;;;;4.32;1.20;;;4.00;99.90;;;;;;3573778;40;20361;-78
2021/04/14 01:02:11;;;;;;;3.60;0.90;;;3.90;99.90;;;;;;3573828;40;20060;-80
2021/04/14 01:04:37;;;;;;;4.07;1.20;;;3.80;99.90;;;;;;3573110;40;20328;-80
2021/04/14 01:07:02;;;;;;;7.10;1.25;;;3.70;99.90;;;;;;3572801;40;20333;-81
2021/04/14 01:09:28;;;;;;;1.52;0.70;;;3.70;99.90;;;;;;3573649;40;20316;-80
2021/04/14 01:11:56;;;;;;;2.70;0.85;;;3.50;99.90;;;;;;3573622;40;20088;-80
2021/04/14 01:14:22;;;;;;;3.50;0.70;;;3.50;99.90;;;;;;3574082;40;20287;-79
2021/04/14 01:16:47;;;;;;;3.28;0.73;;;3.50;99.90;;;;;;3573328;40;20077;-80
2021/04/14 01:19:13;;;;;;;4.72;0.68;;;3.50;99.90;;;;;;3574078;40;20051;-80
2021/04/14 01:21:41;;;;;;;2.50;1.27;;;3.40;99.90;;;;;;3573502;40;20045;-80
2021/04/14 01:24:13;;;;;;;1.15;0.47;;;3.40;99.90;;;;;;3572613;40;20059;-79
2021/04/14 01:26:38;;;;;;;0.95;0.47;;;3.40;99.90;;;;;;3573867;40;20288;-81
2021/04/14 01:29:06;;;;;;;3.28;0.80;;;3.50;99.90;;;;;;3574256;40;20059;-80
2021/04/14 01:31:32;;;;;;;0.88;0.45;;;3.90;99.90;;;;;;3573317;40;20474;-80
2021/04/14 01:34:00;;;;;;;3.08;0.45;;;3.90;99.90;;;;;;3573354;40;20060;-80
2021/04/14 01:36:25;;;;;;;2.10;0.65;;;3.90;99.90;;;;;;3573498;40;20053;-79
2021/04/14 01:38:51;;;;;;;4.70;0.70;;;3.90;99.90;;;;;;3573323;40;20318;-80
2021/04/14 01:41:17;;;;;;;3.47;0.68;;;4.00;99.90;;;;;;3573493;40;20399;-80
2021/04/14 01:43:43;;;;;;;1.65;0.47;;;4.00;99.90;;;;;;3573155;40;20134;-79
2021/04/14 01:46:08;;;;;;;5.07;0.70;;;4.00;99.90;;;;;;3575164;40;20240;-80
2021/04/14 01:48:34;;;;;;;1.52;0.70;;;4.00;99.90;;;;;;3574729;40;20173;-81
2021/04/14 01:51:00;;;;;;;0.98;0.70;;;4.10;99.90;;;;;;3575299;40;20041;-80
2021/04/14 01:53:26;;;;;;;6.93;1.15;;;4.10;99.90;;;;;;3575544;40;20044;-80
2021/04/14 01:55:52;;;;;;;3.05;0.70;;;4.10;99.90;;;;;;3574020;40;20493;-78
2021/04/14 01:58:19;;;;;;;1.30;0.73;;;3.90;99.90;;;;;;3575257;40;20398;-80
2021/04/14 02:00:53;;;;;;;1.95;0.52;;;4.10;99.90;;;;;;3575683;40;20053;-80
2021/04/14 02:03:19;;;;;;;1.50;0.65;;;4.20;99.90;;;;;;3575090;40;20045;-79
2021/04/14 02:05:45;;;;;;;8.43;0.70;;;4.10;99.90;;;;;;3574588;40;20061;-81
2021/04/14 02:08:11;;;;;;;1.10;0.50;;;4.10;99.90;;;;;;3574662;40;20049;-79
2021/04/14 02:10:37;;;;;;;3.33;0.60;;;4.10;99.90;;;;;;3574520;40;20053;-82
2021/04/14 02:13:10;;;;;;;5.45;0.80;;;3.90;99.90;;;;;;3574359;40;20052;-83
2021/04/14 02:15:36;;;;;;;2.92;0.60;;;3.90;99.90;;;;;;3574552;40;20060;-79
2021/04/14 02:18:22;;;;;;;4.43;0.73;;;3.70;99.90;;;;;;3574131;40;20053;-78
2021/04/14 02:20:49;;;;;;;3.40;0.88;;;3.60;99.90;;;;;;3574624;40;20057;-80
2021/04/14 02:23:26;;;;;;;4.70;0.70;;;3.50;99.90;;;;;;3574801;40;20056;-81
2021/04/14 02:26:12;;;;;;;5.43;0.77;;;3.40;99.90;;;;;;3574652;40;20049;-80
2021/04/14 02:28:38;;;;;;;3.60;0.75;;;3.40;99.90;;;;;;3575060;40;20041;-80
2021/04/14 02:31:05;;;;;;;1.90;0.60;;;3.40;99.90;;;;;;3574755;40;20057;-80
2021/04/14 02:33:31;;;;;;;2.92;0.55;;;3.40;99.90;;;;;;3575282;40;20360;-81
2021/04/14 02:35:57;;;;;;;2.70;0.52;;;3.40;99.90;;;;;;3574283;40;20048;-79
2021/04/14 02:38:24;;;;;;;2.17;0.47;;;3.40;99.90;;;;;;3574701;40;20641;-80
2021/04/14 02:41:06;;;;;;;3.15;0.52;;;3.40;99.90;;;;;;3575404;40;20057;-80
2021/04/14 02:43:53;;;;;;;3.63;0.55;;;3.40;99.90;;;;;;3574044;40;20057;-80
2021/04/14 02:46:21;;;;;;;2.00;0.55;;;3.50;99.90;;;;;;3575758;40;20060;-80
2021/04/14 02:48:48;;;;;;;1.88;0.70;;;3.50;99.90;;;;;;3573753;40;20312;-79
2021/04/14 02:51:33;;;;;;;4.78;0.85;;;3.40;99.90;;;;;;3573833;40;20041;-80
2021/04/14 02:53:59;;;;;;;2.00;0.50;;;3.50;99.90;;;;;;3574911;40;20315;-80
2021/04/14 02:56:24;;;;;;;2.70;0.63;;;3.40;99.90;;;;;;3574786;40;20060;-79
2021/04/14 02:58:50;;;;;;;1.15;0.40;;;3.40;99.90;;;;;;3574488;40;20051;-80
2021/04/14 03:01:17;;;;;;;3.47;0.77;;;3.50;99.90;;;;;;3574542;40;20045;-80
2021/04/14 03:03:43;;;;;;;2.78;0.70;;;3.50;99.90;;;;;;3574184;40;20055;-80
2021/04/14 03:06:10;;;;;;;2.25;0.63;;;3.50;99.90;;;;;;3574351;40;20303;-81
2021/04/14 03:08:36;;;;;;;2.28;0.50;;;3.50;99.90;;;;;;3574543;40;20334;-80
2021/04/14 03:11:22;;;;;;;3.75;0.80;;;3.40;99.90;;;;;;3561576;40;20059;-79
2021/04/14 03:13:53;;;;;;;3.10;0.70;;;3.40;99.90;;;;;;3574679;40;20154;-80
2021/04/14 03:16:19;;;;;;;5.05;0.57;;;3.50;99.90;;;;;;3574721;40;20041;-79
2021/04/14 03:18:45;;;;;;;1.05;0.60;;;3.50;99.90;;;;;;3574307;40;20126;-80
2021/04/14 03:21:10;;;;;;;3.97;1.50;;;3.30;99.90;;;;;;3573352;40;20053;-79
2021/04/14 03:23:36;;;;;;;1.65;0.80;;;3.30;99.90;;;;;;3574290;40;20057;-79
2021/04/14 03:26:02;;;;;;;3.60;1.17;;;3.40;99.90;;;;;;3574576;40;20053;-80
2021/04/14 03:28:27;;;;;;;4.05;0.90;;;3.40;99.90;;;;;;3574211;40;20496;-80
2021/04/14 03:30:53;;;;;;;5.80;0.90;;;3.40;99.90;;;;;;3574056;40;20055;-80
2021/04/14 03:33:19;;;;;;;2.25;0.85;;;3.50;99.90;;;;;;3574914;40;20053;-79
2021/04/14 03:35:44;;;;;;;7.43;2.33;;;3.30;99.90;;;;;;3573246;40;20059;-79
2021/04/14 03:38:10;;;;;;;1.65;0.73;;;3.40;99.90;;;;;;3574116;40;20045;-80
2021/04/14 03:40:56;;;;;;;3.70;0.70;;;3.50;99.90;;;;;;3573623;40;20100;-80
2021/04/14 03:43:22;;;;;;;5.13;1.08;;;3.50;99.90;;;;;;3574628;40;20558;-81
2021/04/14 03:45:51;;;;;;;3.08;0.90;;;3.40;99.90;;;;;;3573161;40;20067;-80
2021/04/14 03:48:17;;;;;;;3.95;0.95;;;3.40;99.90;;;;;;3574632;40;20068;-81
2021/04/14 03:50:43;;;;;;;2.17;0.63;;;3.60;99.90;;;;;;3573629;40;20041;-81
2021/04/14 03:53:16;;;;;;;2.08;0.50;;;3.70;99.90;;;;;;3574870;40;20064;-79
2021/04/14 03:55:42;;;;;;;3.10;0.98;;;3.70;99.90;;;;;;3573539;40;20056;-79
2021/04/14 03:58:08;;;;;;;2.55;0.80;;;3.70;99.90;;;;;;3574060;40;20450;-80
2021/04/14 04:00:34;;;;;;;1.98;0.70;;;3.70;99.90;;;;;;3573128;40;20056;-80
2021/04/14 04:03:01;;;;;;;3.35;0.88;;;3.70;99.90;;;;;;3574753;40;20056;-81
2021/04/14 04:05:27;;;;;;;2.22;1.25;;;3.70;99.90;;;;;;3573287;40;20285;-81
2021/04/14 04:08:14;;;;;;;5.75;0.80;;;3.60;99.90;;;;;;3573603;40;20069;-78
2021/04/14 04:10:39;;;;;;;4.75;1.20;;;3.50;99.90;;;;;;3573309;40;20397;-80
2021/04/14 04:13:06;;;;;;;3.53;1.10;;;3.50;99.90;;;;;;3574076;40;20049;-80
2021/04/14 04:15:32;;;;;;;3.67;1.70;;;3.40;99.90;;;;;;3573858;40;20101;-80
2021/04/14 04:17:58;;;;;;;5.55;1.20;;;3.40;99.90;;;;;;3574196;40;20426;-80
2021/04/14 04:20:44;;;;;;;4.57;0.85;;;3.40;99.90;;;;;;3571977;40;20145;-80
2021/04/14 04:23:10;;;;;;;4.30;1.48;;;3.40;99.90;;;;;;3574312;40;20061;-80
2021/04/14 04:25:37;;;;;;;3.70;1.20;;;3.40;99.90;;;;;;3573603;40;20088;-82
2021/04/14 04:28:04;;;;;;;3.95;1.10;;;3.50;99.90;;;;;;3573807;40;20089;-81
2021/04/14 04:30:30;;;;;;;4.75;1.13;;;3.50;99.90;;;;;;3573925;40;20049;-81
2021/04/14 04:32:57;;;;;;;5.82;1.20;;;3.50;99.90;;;;;;3573744;40;20049;-80
2021/04/14 04:35:24;;;;;;;8.82;1.17;;;3.40;99.90;;;;;;3573378;40;20040;-80
2021/04/14 04:37:49;;;;;;;5.38;1.00;;;3.40;99.90;;;;;;3573800;40;20106;-81
2021/04/14 04:40:16;;;;;;;5.47;1.20;;;3.40;99.90;;;;;;3572650;40;20052;-81
2021/04/14 04:43:02;;;;;;;5.60;1.45;;;3.40;99.90;;;;;;3573181;40;20057;-80
2021/04/14 04:45:31;;;;;;;4.35;1.45;;;3.40;99.90;;;;;;3573514;40;20052;-80
2021/04/14 04:47:58;;;;;;;7.05;1.80;;;3.50;99.90;;;;;;3574451;40;20052;-80
2021/04/14 04:50:28;;;;;;;2.95;1.70;;;3.30;99.90;;;;;;3573084;40;20045;-80
2021/04/14 04:52:59;;;;;;;4.38;1.42;;;3.30;99.90;;;;;;3574171;40;20084;-80
2021/04/14 04:55:25;;;;;;;5.00;1.83;;;3.30;99.90;;;;;;3572502;40;20346;-81
2021/04/14 04:57:51;;;;;;;10.40;1.60;;;3.30;99.90;;;;;;3573597;40;20083;-81
2021/04/14 05:00:18;;;;;;;4.93;1.60;;;3.40;99.90;;;;;;3573973;40;20049;-80
2021/04/14 05:02:44;;;;;;;5.80;1.75;;;3.50;99.90;;;;;;3574012;40;20045;-82
2021/04/14 05:05:20;;;;;;;5.57;1.23;;;3.50;99.90;;;;;;3573036;40;20391;-80
2021/04/14 05:07:47;;;;;;;11.55;1.65;;;3.50;99.90;;;;;;3573869;40;20041;-81
2021/04/14 05:10:13;;;;;;;8.93;1.55;;;3.50;99.90;;;;;;3573643;40;20563;-81
2021/04/14 05:12:39;;;;;;;5.88;1.70;;;3.60;99.90;;;;;;3573652;40;20075;-80
2021/04/14 05:15:07;;;;;;;5.53;1.77;;;3.60;99.90;;;;;;3573281;40;20069;-81
2021/04/14 05:17:33;;;;;;;6.70;2.08;;;3.70;99.90;;;;;;3572799;40;20322;-78
2021/04/14 05:19:58;;;;;;;7.63;1.55;;;3.80;99.90;;;;;;3573203;40;20049;-81
2021/04/14 05:22:26;;;;;;;8.88;1.80;;;3.80;99.90;;;;;;3575358;40;20049;-80
2021/04/14 05:24:51;;;;;;;5.05;1.10;;;4.00;99.90;;;;;;3575066;40;20497;-82
2021/04/14 05:27:17;;;;;;;6.90;1.58;;;4.10;99.90;;;;;;3574215;40;20056;-80
2021/04/14 05:29:43;;;;;;;4.22;1.08;;;4.30;99.90;;;;;;3574958;40;20048;-81
2021/04/14 05:32:11;;;;;;;12.40;1.75;;;4.40;99.90;;;;;;3575740;40;20048;-79
2021/04/14 05:34:41;;;;;;;6.60;1.67;;;4.80;99.90;;;;;;3574759;40;20130;-80
2021/04/14 05:37:07;;;;;;;10.93;1.35;;;5.00;99.90;;;;;;3575147;40;20155;-80
2021/04/14 05:39:53;;;;;;;10.45;1.35;;;5.20;99.90;;;;;;3575237;40;20057;-81
2021/04/14 05:42:19;;;;;;;5.00;1.48;;;5.50;99.90;;;;;;3575429;40;20088;-80
2021/04/14 05:44:45;;;;;;;5.47;1.52;;;5.50;99.90;;;;;;3575398;40;20538;-80
2021/04/14 05:47:11;;;;;;;11.15;1.40;;;5.60;99.90;;;;;;3575409;40;20053;-81
2021/04/14 05:49:56;;;;;;;6.97;1.17;;;5.50;99.90;;;;;;3566757;40;20052;-79
2021/04/14 05:52:22;;;;;;;8.02;2.00;;;5.70;99.90;;;;;;3574864;40;20037;-80
2021/04/14 05:54:48;;;;;;;2.67;0.90;;;5.80;99.90;;;;;;3574464;40;20340;-80
2021/04/14 05:57:13;;;;;;;10.38;1.65;;;5.80;99.90;;;;;;3574832;40;20064;-80
2021/04/14 05:59:39;;;;;;;5.65;1.10;;;6.10;99.90;;;;;;3574062;40;20087;-79
2021/04/14 06:02:04;;;;;;;6.85;1.65;;;5.70;99.90;;;;;;3575199;40;20056;-79
2021/04/14 06:04:30;;;;;;;3.88;1.02;;;5.60;99.90;;;;;;3574592;40;20399;-81
2021/04/14 06:06:56;;;;;;;5.70;1.25;;;5.50;99.90;;;;;;3574782;40;20060;-81
2021/04/14 06:09:22;;;;;;;15.00;6.90;;;5.80;99.90;;;;;;3575504;40;20059;-81
2021/04/14 06:11:47;;;;;;;8.48;3.30;;;6.20;99.90;;;;;;3569062;40;20060;-81
2021/04/14 06:14:13;;;;;;;2.67;1.20;;;6.50;99.90;;;;;;3571762;40;20126;-80
2021/04/14 06:16:39;;;;;;;11.32;3.13;;;7.00;99.90;;;;;;3573590;40;20049;-79
2021/04/14 06:19:05;;;;;;;9.23;1.60;;;7.10;99.90;;;;;;3570354;40;20041;-80
2021/04/14 06:21:36;;;;;;;7.28;1.65;;;7.20;99.90;;;;;;3583312;40;20554;-81
2021/04/14 06:24:04;;;;;;;4.85;1.10;;;7.30;99.90;;;;;;3574607;40;20059;-80
2021/04/14 06:26:47;;;;;;;6.35;1.92;;;7.50;99.90;;;;;;3573689;40;20049;-80
2021/04/14 06:29:13;;;;;;;9.20;1.27;;;7.30;99.90;;;;;;3574078;40;20057;-81
2021/04/14 06:31:42;;;;;;;8.00;1.27;;;6.90;99.90;;;;;;3570597;40;20304;-81
2021/04/14 06:34:29;;;;;;;7.03;1.20;;;7.10;99.90;;;;;;3569497;40;20052;-77
2021/04/14 06:36:58;;;;;;;4.18;1.02;;;7.00;99.90;;;;;;3574007;40;20760;-74
2021/04/14 06:39:29;;;;;;;4.25;1.13;;;6.90;99.90;;;;;;3573716;40;20053;-75
2021/04/14 06:42:08;;;;;;;15.65;6.10;;;6.90;99.90;;;;;;3573711;40;20055;-76
2021/04/14 06:45:13;;;;;;;7.95;2.38;;;7.30;99.90;;;;;;3580396;39;20053;-75
2021/04/14 06:47:51;;;;;;;6.38;1.10;;;6.70;99.90;;;;;;3569147;40;20045;-75
2021/04/14 06:50:31;;;;;;;6.55;1.10;;;6.40;99.90;;;;;;3567904;40;20056;-76
2021/04/14 06:53:10;;;;;;;7.80;2.67;;;6.50;99.90;;;;;;3567798;40;20045;-75
2021/04/14 06:55:45;;;;;;;8.05;2.22;;;6.50;99.90;;;;;;3567622;40;20292;-77
2021/04/14 06:58:15;;;;;;;9.30;1.40;;;6.60;99.90;;;;;;3572391;40;20056;-75
2021/04/14 07:00:44;;;;;;;9.48;3.20;;;6.60;99.90;;;;;;3589560;39;20423;-75
2021/04/14 07:03:20;;;;;;;9.80;1.40;;;6.70;99.90;;;;;;3573028;40;20049;-75
2021/04/14 07:05:51;;;;;;;6.55;1.70;;;6.70;99.90;;;;;;3573811;40;20183;-75
2021/04/14 07:08:27;;;;;;;10.43;2.28;;;6.90;99.90;;;;;;3572494;40;20114;-77
2021/04/14 07:10:57;;;;;;;9.90;1.40;;;6.90;99.90;;;;;;3567999;40;20407;-75
2021/04/14 07:13:24;;;;;;;7.22;2.08;;;6.80;99.90;;;;;;3573047;40;20582;-75
2021/04/14 07:15:55;;;;;;;6.10;1.42;;;6.90;99.90;;;;;;3568746;40;20052;-75
2021/04/14 07:18:20;;;;;;;8.32;1.95;;;7.20;99.90;;;;;;3566634;40;20060;-75
2021/04/14 07:21:03;;;;;;;5.88;1.38;;;7.20;99.90;;;;;;3569437;40;20110;-75
2021/04/14 07:23:40;;;;;;;15.27;2.72;;;7.50;99.90;;;;;;3571935;40;20061;-77
2021/04/14 07:26:37;;;;;;;8.98;1.65;;;7.60;99.90;;;;;;3571001;40;20053;-74
2021/04/14 07:29:06;;;;;;;10.05;1.52;;;7.20;99.90;;;;;;3571939;40;20613;-75
2021/04/14 07:31:45;;;;;;;6.63;1.20;;;7.30;99.90;;;;;;3579853;40;20056;-75
2021/04/14 07:34:34;;;;;;;7.93;1.80;;;7.40;99.90;;;;;;3571040;40;20052;-76
2021/04/14 07:37:08;;;;;;;7.72;2.67;;;7.70;99.90;;;;;;3570610;40;20037;-75
2021/04/14 07:39:52;;;;;;;9.68;2.90;;;8.30;99.90;;;;;;3572072;40;20041;-75
2021/04/14 07:42:27;;;;;;;4.85;1.63;;;8.70;99.90;;;;;;3571119;40;20071;-75
2021/04/14 07:45:25;;;;;;;9.80;1.40;;;8.40;99.90;;;;;;3574622;40;20045;-76
2021/04/14 07:47:55;;;;;;;6.78;1.10;;;8.40;99.90;;;;;;3564455;40;20065;-79
2021/04/14 07:50:31;;;;;;;7.00;1.20;;;8.20;99.90;;;;;;3568799;40;20053;-75
2021/04/14 07:52:57;;;;;;;6.05;1.75;;;8.50;99.90;;;;;;3567405;40;20060;-76
2021/04/14 07:55:32;;;;;;;5.45;0.88;;;8.20;99.90;;;;;;3565794;40;20131;-74
2021/04/14 07:58:07;;;;;;;9.65;3.05;;;8.10;99.90;;;;;;3564131;40;20073;-75
2021/04/14 08:00:34;;;;;;;10.00;1.30;;;8.50;99.90;;;;;;3566847;40;20056;-73
2021/04/14 08:03:24;;;;;;;6.95;1.50;;;8.40;99.90;;;;;;3564336;40;20315;-74
2021/04/14 08:05:50;;;;;;;15.30;2.17;;;8.80;99.90;;;;;;3572913;40;20051;-72
2021/04/14 08:08:30;;;;;;;7.03;1.75;;;8.40;99.90;;;;;;3573381;40;20319;-73
2021/04/14 08:11:05;;;;;;;8.65;1.25;;;8.30;99.90;;;;;;3572355;40;20362;-75
2021/04/14 08:13:38;;;;;;;9.13;1.63;;;8.10;99.90;;;;;;3578131;40;20419;-73
2021/04/14 08:16:34;;;;;;;8.02;1.20;;;8.40;99.90;;;;;;3572879;40;20088;-73
2021/04/14 08:19:07;;;;;;;8.10;1.13;;;8.50;99.90;;;;;;3574753;40;20057;-73
2021/04/14 08:21:38;;;;;;;6.32;1.27;;;8.20;99.90;;;;;;3570390;40;20052;-75
2021/04/14 08:24:12;;;;;;;5.82;1.02;;;8.40;99.90;;;;;;3568744;40;20060;-73
2021/04/14 08:26:37;;;;;;;8.13;1.77;;;8.50;99.90;;;;;;3571521;40;20060;-73
2021/04/14 08:29:13;;;;;;;14.38;4.10;;;9.00;99.90;;;;;;3574306;40;20045;-72
2021/04/14 08:31:47;;;;;;;10.32;2.80;;;9.70;99.90;;;;;;3570837;40;20052;-74
2021/04/14 08:34:32;;;;;;;10.90;3.53;;;9.00;99.90;;;;;;3567810;40;20064;-75
2021/04/14 08:37:07;;;;;;;21.23;6.15;;;8.80;99.90;;;;;;3570887;40;20147;-74
2021/04/14 08:39:36;;;;;;;22.20;6.55;;;9.00;99.90;;;;;;3570147;40;20528;-75
2021/04/14 08:42:20;;;;;;;7.47;3.35;;;8.60;99.90;;;;;;3571354;40;21335;-76
2021/04/14 08:45:03;;;;;;;21.15;7.43;;;8.70;99.90;;;;;;3572251;40;20426;-75
2021/04/14 08:47:30;;;;;;;12.35;4.13;;;8.70;99.90;;;;;;3572592;40;20049;-75
2021/04/14 08:50:25;;;;;;;8.40;2.47;;;8.80;99.90;;;;;;3582198;40;20131;-74
2021/04/14 08:52:56;;;;;;;6.85;2.15;;;9.90;99.90;;;;;;3575108;40;20616;-73
2021/04/14 08:55:25;;;;;;;11.60;5.05;;;10.40;99.90;;;;;;3573761;40;20130;-74
2021/04/14 08:57:56;;;;;;;9.30;1.02;;;10.80;99.90;;;;;;3572968;40;20041;-74
2021/04/14 09:00:23;;;;;;;7.32;1.00;;;9.70;99.90;;;;;;3573966;40;20065;-75
2021/04/14 09:02:53;;;;;;;9.32;1.20;;;8.40;99.90;;;;;;3571297;40;20053;-75
2021/04/14 09:05:21;;;;;;;12.82;1.80;;;8.60;99.90;;;;;;3573367;40;20049;-76
2021/04/14 09:07:48;;;;;;;5.60;0.90;;;8.00;99.90;;;;;;3573408;40;20049;-74
2021/04/14 09:10:36;;;;;;;11.35;1.25;;;7.90;99.90;;;;;;3575374;40;20053;-73
2021/04/14 09:13:03;;;;;;;7.20;2.08;;;9.50;99.90;;;;;;3572334;40;20544;-74
2021/04/14 09:15:30;;;;;;;4.18;1.15;;;9.50;99.90;;;;;;3567274;40;20045;-76
2021/04/14 09:18:01;;;;;;;8.00;1.30;;;9.00;99.90;;;;;;3568995;40;20478;-76
2021/04/14 09:20:37;;;;;;;11.60;2.38;;;10.50;99.90;;;;;;3571836;40;20388;-74
2021/04/14 09:23:10;;;;;;;15.02;2.25;;;12.00;99.90;;;;;;3573111;40;20056;-76
2021/04/14 09:25:40;;;;;;;5.28;1.00;;;13.70;99.90;;;;;;3574111;40;20330;-75
2021/04/14 09:28:08;;;;;;;6.88;1.35;;;13.00;99.90;;;;;;3572839;40;20056;-75
2021/04/14 09:30:40;;;;;;;3.83;1.60;;;13.10;99.90;;;;;;3571560;40;20323;-75
2021/04/14 09:33:05;;;;;;;7.93;2.10;;;13.90;99.90;;;;;;3565261;40;20061;-76
2021/04/14 09:35:31;;;;;;;5.30;1.40;;;13.50;99.90;;;;;;3574524;40;20048;-77
2021/04/14 09:38:38;;;;;;;3.85;1.33;;;13.90;99.90;;;;;;3572837;40;20036;-76
2021/04/14 09:41:33;;;;;;;3.88;1.10;;;13.80;99.90;;;;;;3574028;40;20055;-76
2021/04/14 09:44:17;;;;;;;5.07;1.55;;;15.80;99.50;;;;;;3572073;40;20115;-76
2021/04/14 09:47:08;;;;;;;3.47;1.25;;;16.20;94.50;;;;;;3571961;40;20308;-75
2021/04/14 09:49:40;;;;;;;4.43;1.20;;;14.70;93.40;;;;;;3573304;40;20037;-75
2021/04/14 09:52:46;;;;;;;5.28;1.23;;;14.40;95.40;;;;;;3565771;40;20081;-75
2021/04/14 09:55:26;;;;;;;5.70;1.58;;;13.70;95.40;;;;;;3580411;40;20084;-74
2021/04/14 09:57:52;;;;;;;3.85;1.25;;;13.50;97.70;;;;;;3580301;40;20146;-76
2021/04/14 10:00:27;;;;;;;7.05;1.00;;;14.60;96.60;;;;;;3576241;40;20048;-76
2021/04/14 10:03:07;;;;;;;4.55;1.08;;;14.30;95.70;;;;;;3572070;40;20109;-76
2021/04/14 10:05:33;;;;;;;8.05;1.98;;;13.20;96.10;;;;;;3573699;40;20053;-76
2021/04/14 10:08:02;;;;;;;5.53;1.30;;;12.00;97.50;;;;;;3572065;40;20461;-75
2021/04/14 10:10:28;;;;;;;5.35;1.15;;;10.90;99.90;;;;;;3572381;40;20085;-76
2021/04/14 10:12:56;;;;;;;10.73;1.15;;;11.00;98.90;;;;;;3572017;40;20052;-76
2021/04/14 10:15:39;;;;;;;4.32;0.98;;;10.00;98.40;;;;;;3573533;40;20064;-75
2021/04/14 10:18:17;;;;;;;4.50;0.90;;;10.50;94.60;;;;;;3573192;40;20381;-74
2021/04/14 10:20:42;;;;;;;5.43;0.85;;;11.30;94.20;;;;;;3568622;40;20088;-76
2021/04/14 10:23:15;;;;;;;4.57;1.13;;;10.50;94.00;;;;;;3567367;40;20493;-76
2021/04/14 10:25:42;;;;;;;6.25;1.27;;;10.70;96.50;;;;;;3572927;40;20312;-78
2021/04/14 10:28:20;;;;;;;7.85;1.75;;;10.00;97.80;;;;;;3570749;40;20493;-76
2021/04/14 10:30:59;;;;;;;5.43;1.20;;;10.40;97.30;;;;;;3571261;40;20068;-76
2021/04/14 10:33:26;;;;;;;6.20;1.05;;;10.50;97.00;;;;;;3571503;40;20045;-75
2021/04/14 10:35:53;;;;;;;4.13;0.85;;;10.50;96.90;;;;;;3569115;40;20049;-76
2021/04/14 10:38:39;;;;;;;6.13;1.00;;;10.10;96.30;;;;;;3566273;40;20319;-74
2021/04/14 10:41:34;;;;;;;6.80;3.03;;;10.30;95.00;;;;;;3569366;40;20430;-76
2021/04/14 10:44:00;;;;;;;2.65;0.68;;;10.90;93.40;;;;;;3573608;40;20415;-76
2021/04/14 10:46:29;;;;;;;2.92;0.65;;;10.50;93.80;;;;;;3574112;40;20060;-75
2021/04/14 10:49:01;;;;;;;7.05;1.73;;;10.60;92.90;;;;;;3573820;40;20057;-75
2021/04/14 10:51:38;;;;;;;4.53;1.10;;;11.40;93.30;;;;;;3570709;40;20142;-74
2021/04/14 10:54:07;;;;;;;5.30;1.13;;;11.40;93.00;;;;;;3573998;40;20060;-76
2021/04/14 10:56:34;;;;;;;5.68;0.80;;;11.90;92.40;;;;;;3573655;40;20338;-76
2021/04/14 10:59:04;;;;;;;4.65;1.33;;;12.10;93.40;;;;;;3573909;40;20057;-75
2021/04/14 11:01:36;;;;;;;6.22;1.05;;;12.40;92.10;;;;;;3573616;40;20060;-76
2021/04/14 11:04:24;;;;;;;5.30;0.98;;;12.00;92.70;;;;;;3573608;40;20133;-76
2021/04/14 11:06:55;;;;;;;4.53;1.05;;;11.80;93.00;;;;;;3572254;40;20095;-74
2021/04/14 11:09:22;;;;;;;3.97;0.70;;;11.20;94.30;;;;;;3573859;40;20070;-76
2021/04/14 11:11:49;;;;;;;6.03;1.13;;;11.20;96.00;;;;;;3574451;40;20301;-76
2021/04/14 11:14:17;;;;;;;3.85;1.33;;;11.10;95.10;;;;;;3573598;40;20144;-78
2021/04/14 11:16:46;;;;;;;4.63;1.38;;;11.70;96.20;;;;;;3571471;40;20141;-76
2021/04/14 11:19:16;;;;;;;5.22;0.85;;;11.50;94.20;;;;;;3573111;40;20061;-75
2021/04/14 11:21:43;;;;;;;4.63;1.30;;;11.20;95.20;;;;;;3573564;40;20057;-76
2021/04/14 11:24:12;;;;;;;6.75;1.25;;;11.00;93.90;;;;;;3573969;40;20049;-76
2021/04/14 11:26:47;;;;;;;4.47;0.95;;;11.50;94.50;;;;;;3573775;40;20056;-79
2021/04/14 11:29:23;;;;;;;3.50;0.98;;;11.90;95.30;;;;;;3572254;40;20318;-76
2021/04/14 11:31:51;;;;;;;7.97;1.00;;;11.90;94.90;;;;;;3573642;40;20056;-76
2021/04/14 11:34:32;;;;;;;5.13;0.95;;;11.20;97.10;;;;;;3574204;40;20052;-75
2021/04/14 11:37:26;;;;;;;6.18;0.90;;;10.00;97.30;;;;;;3573416;40;20407;-75
2021/04/14 11:40:00;;;;;;;7.05;1.17;;;9.70;97.60;;;;;;3573056;40;20360;-74
2021/04/14 11:42:39;;;;;;;6.18;1.00;;;9.20;99.20;;;;;;3573419;40;20092;-75
2021/04/14 11:45:06;;;;;;;5.47;1.25;;;9.20;99.90;;;;;;3574382;40;20061;-76
2021/04/14 11:47:38;;;;;;;6.22;1.30;;;10.10;97.90;;;;;;3572228;40;20051;-73
2021/04/14 11:50:14;;;;;;;2.40;0.55;;;10.60;97.30;;;;;;3573701;40;20056;-75
2021/04/14 11:52:55;;;;;;;4.15;1.10;;;10.10;97.30;;;;;;3573011;40;20415;-75
2021/04/14 11:55:20;;;;;;;3.92;0.93;;;10.30;96.80;;;;;;3573732;40;20095;-75
2021/04/14 11:57:50;;;;;;;3.35;0.80;;;10.80;96.60;;;;;;3573334;40;20411;-76
2021/04/14 12:00:29;;;;;;;8.52;1.13;;;10.80;95.70;;;;;;3574168;40;20806;-76
2021/04/14 12:03:00;;;;;;;3.83;1.02;;;10.40;95.20;;;;;;3572149;40;20056;-75
2021/04/14 12:05:25;;;;;;;6.53;0.93;;;10.10;96.80;;;;;;3573378;40;20328;-76
2021/04/14 12:07:51;;;;;;;4.07;0.70;;;10.10;97.10;;;;;;3573545;40;20464;-75
2021/04/14 12:10:17;;;;;;;4.82;1.48;;;9.90;98.00;;;;;;3573778;40;20401;-75
2021/04/14 12:12:43;;;;;;;4.70;0.70;;;9.80;96.80;;;;;;3573274;40;20056;-75
2021/04/14 12:15:09;;;;;;;5.15;0.88;;;9.30;96.70;;;;;;3574083;40;20052;-76
2021/04/14 12:17:36;;;;;;;4.25;1.08;;;10.20;97.90;;;;;;3572897;40;20437;-74
2021/04/14 12:20:04;;;;;;;2.65;0.80;;;11.10;95.20;;;;;;3574288;40;20049;-75
2021/04/14 12:22:32;;;;;;;5.72;1.92;;;10.40;95.60;;;;;;3573387;40;20052;-74
2021/04/14 12:24:58;;;;;;;3.10;0.73;;;10.40;94.60;;;;;;3573309;40;20048;-75
2021/04/14 12:27:24;;;;;;;8.68;2.58;;;11.00;94.50;;;;;;3573053;40;20060;-75
2021/04/14 12:29:50;;;;;;;2.45;0.60;;;11.70;94.10;;;;;;3572610;40;20451;-74
2021/04/14 12:32:16;;;;;;;2.60;0.63;;;11.20;92.70;;;;;;3571853;40;20061;-75
2021/04/14 12:34:42;;;;;;;7.13;2.45;;;11.50;91.80;;;;;;3572698;40;20056;-76
2021/04/14 12:37:07;;;;;;;6.38;1.23;;;11.80;92.20;;;;;;3573288;40;20045;-76
2021/04/14 12:39:34;;;;;;;1.75;0.80;;;11.70;92.60;;;;;;3573291;40;20415;-74
2021/04/14 12:41:59;;;;;;;2.85;0.50;;;10.80;91.80;;;;;;3572757;40;20057;-75
2021/04/14 12:44:25;;;;;;;3.85;0.73;;;11.50;91.30;;;;;;3572682;40;20179;-76
2021/04/14 12:46:51;;;;;;;4.30;1.10;;;11.60;91.40;;;;;;3572535;40;20060;-72
2021/04/14 12:49:19;;;;;;;2.90;0.60;;;12.00;91.50;;;;;;3572746;40;20360;-74
2021/04/14 12:51:58;;;;;;;4.15;0.80;;;11.90;87.50;;;;;;3569058;40;20057;-75
2021/04/14 12:54:35;;;;;;;4.53;0.73;;;11.40;90.50;;;;;;3573104;40;20068;-73
2021/04/14 12:57:13;;;;;;;2.90;0.60;;;10.50;89.50;;;;;;3573181;40;20049;-75
2021/04/14 13:00:04;;;;;;;6.05;1.10;;;10.30;92.70;;;;;;3572753;40;20056;-74
2021/04/14 13:02:42;;;;;;;6.22;0.90;;;10.50;93.20;;;;;;3572791;40;20072;-74
2021/04/14 13:05:24;;;;;;;3.78;1.02;;;11.00;93.60;;;;;;3572980;40;20056;-75
2021/04/14 13:08:12;;;;;;;3.00;0.63;;;11.70;93.30;;;;;;3573097;40;20061;-74
2021/04/14 13:11:03;;;;;;;3.55;1.33;;;10.80;90.70;;;;;;3588246;40;20053;-75
2021/04/14 13:13:29;;;;;;;8.40;0.90;;;11.30;93.50;;;;;;3573341;40;20403;-75